DXXX

Details ICAO DXXX (LFW)
Name GNASSINGBE EYADEMA INTL
Region Togolese Republic
Timezone Africa/Lome (UTC+0.0)
Plans Departing 69
Arriving 82
Stats Elevation 72 ft / 22 m (AMSL)
Location 6.165736° 1.254142°
Runways 1
Magnetic Variation 2.827° W
Sunrise 2018-05-28 05:40:22 UTC / 2018-05-28 05:40:22 Local
Sunset 2018-05-28 18:07:02 UTC / 2018-05-28 18:07:02 Local
Advertisement - Login to hide

Runways

ID Width Length Bearing (true) Bearing (mag) Surface Threshold Offset Overrun Length
04 148 ft / 45 m 9,878 ft / 3,011 m 38.40° 41.23° Asphalt 0 ft / 0 m 197 ft / 60 m
22 148 ft / 45 m 9,878 ft / 3,011 m 218.40° 221.23° Asphalt 0 ft / 0 m 197 ft / 60 m

Approach Navaids

Runway Type Ident Frequency Range Bearing (true) Bearing (mag) Slope Elevation
22 Localiser LO 110.10 MHz 18 nm / 33 km 218.43° 221.26° - 72 ft / 22 m (AMSL)
22 Glidescope LO 110.10 MHz 15 nm / 28 km 223.00° 225.83° 3.00° 72 ft / 22 m (AMSL)

Map

Weather


0- 5 10 15 20 25 30 35+ Temperature / ° C

Clouds and Precipitation
Forecast for 2018-05-28 00:00 UTC. Updated 3 hours ago

Ground ~20,000 ft ~40,000 ft Winds

METAR

DXXX 280200Z 25008KT 9999 FEW011 26/24 Q1013 NOSIG

TAF

TAF DXXX 272300Z 2800/2906 26005KT 9999 FEW012 BECMG 2808/2810 20010KT TEMPO 2814/2818 TS BKN010 FEW020CB BECMG 2822/2824 26005KT

Frequencies

Tower 123.60 MHz A/G VOICE RDO
Tower 120.70 MHz TWR
Warning: Do not use this data for real-world aviation or navigation. No guarantee of current accuracy is given.